createdAt,value
2018-07-08T00:00:52.072Z,52.68
2018-07-08T00:01:51.986Z,52.7
2018-07-08T00:02:52.146Z,52.71
2018-07-08T00:03:51.945Z,52.64
2018-07-08T00:04:52.021Z,52.5
2018-07-08T00:05:52.082Z,52.62
2018-07-08T00:06:53.925Z,52.62
2018-07-08T00:07:52.047Z,52.68
2018-07-08T00:08:52.131Z,52.58
2018-07-08T00:09:51.972Z,52.62
2018-07-08T00:10:51.952Z,52.65
2018-07-08T00:11:52.124Z,52.77
2018-07-08T00:12:52.071Z,52.65
2018-07-08T00:13:52.074Z,52.74
2018-07-08T00:14:52.115Z,52.66
2018-07-08T00:15:52.100Z,52.76
2018-07-08T00:16:52.016Z,52.6
2018-07-08T00:17:52.045Z,52.73
2018-07-08T00:18:52.025Z,52.59
2018-07-08T00:19:51.991Z,52.66
2018-07-08T00:20:52.065Z,52.62
2018-07-08T00:21:54.506Z,52.59
2018-07-08T00:22:52.014Z,52.63
2018-07-08T00:23:52.048Z,52.71
2018-07-08T00:24:51.989Z,52.62
2018-07-08T00:25:52.029Z,52.76
2018-07-08T00:26:52.027Z,52.77
2018-07-08T00:27:52.107Z,52.57
2018-07-08T00:28:52.404Z,52.71
2018-07-08T00:29:52.083Z,52.79
2018-07-08T00:30:51.968Z,52.75
2018-07-08T00:31:52.068Z,52.74
2018-07-08T00:32:51.972Z,52.63
2018-07-08T00:33:52.131Z,52.62
2018-07-08T00:34:52.115Z,52.71
2018-07-08T00:35:52.060Z,52.72
2018-07-08T00:36:51.972Z,52.62
2018-07-08T00:37:54.304Z,52.67
2018-07-08T00:38:52.135Z,52.75
2018-07-08T00:39:52.202Z,52.66
2018-07-08T00:40:51.999Z,52.59
2018-07-08T00:41:52.127Z,52.75
2018-07-08T00:42:52.011Z,52.68
2018-07-08T00:43:52.089Z,52.79
2018-07-08T00:44:54.341Z,52.73
2018-07-08T00:45:52.032Z,52.64
2018-07-08T00:46:52.080Z,52.62
2018-07-08T00:47:52.142Z,52.65
2018-07-08T00:48:52.082Z,52.66
2018-07-08T00:49:52.054Z,52.64
2018-07-08T00:50:52.103Z,52.77
2018-07-08T00:51:52.033Z,52.66
2018-07-08T00:52:52.124Z,52.82
2018-07-08T00:53:52.073Z,52.69
2018-07-08T00:54:51.948Z,52.64
2018-07-08T00:55:54.639Z,52.58
2018-07-08T00:56:51.972Z,52.71
2018-07-08T00:57:52.031Z,52.51
2018-07-08T00:58:52.049Z,52.67
2018-07-08T00:59:51.981Z,52.57
2018-07-08T01:00:52.114Z,52.7
2018-07-08T01:01:52.119Z,52.58
2018-07-08T01:02:54.377Z,52.54
2018-07-08T01:03:52.005Z,52.61
2018-07-08T01:04:54.402Z,52.66
2018-07-08T01:05:52.012Z,52.64
2018-07-08T01:06:53.998Z,52.72
2018-07-08T01:07:52.371Z,52.59
2018-07-08T01:08:52.128Z,52.51
2018-07-08T01:09:52.062Z,52.65
2018-07-08T01:10:51.994Z,52.68
2018-07-08T01:11:52.035Z,52.65
2018-07-08T01:12:52.004Z,52.56
2018-07-08T01:13:52.059Z,52.61
2018-07-08T01:14:52.146Z,52.61
2018-07-08T01:15:52.154Z,52.52
2018-07-08T01:16:52.063Z,52.56
2018-07-08T01:17:54.649Z,52.61
2018-07-08T01:18:51.989Z,52.61
2018-07-08T01:19:52.011Z,52.58
2018-07-08T01:20:52.018Z,52.63
2018-07-08T01:21:51.993Z,52.7
2018-07-08T01:22:52.015Z,52.57
2018-07-08T01:23:52.032Z,52.52
2018-07-08T01:24:54.813Z,52.67
2018-07-08T01:25:52.049Z,52.59
2018-07-08T01:26:53.966Z,52.6
2018-07-08T01:27:52.063Z,52.51
2018-07-08T01:28:52.075Z,52.5
2018-07-08T01:29:52.032Z,52.56
2018-07-08T01:30:52.061Z,52.61
2018-07-08T01:31:52.164Z,52.6
2018-07-08T01:32:52.073Z,52.58
2018-07-08T01:33:52.156Z,52.56
2018-07-08T01:34:52.045Z,52.58
2018-07-08T01:35:52.043Z,52.67
2018-07-08T01:36:52.021Z,52.64
2018-07-08T01:37:52.041Z,52.67
2018-07-08T01:38:52.109Z,52.62
2018-07-08T01:39:52.072Z,52.52
2018-07-08T01:40:52.091Z,52.59
2018-07-08T01:41:54.260Z,52.39
2018-07-08T01:42:54.374Z,52.42
2018-07-08T01:43:52.144Z,52.59
2018-07-08T01:44:52.050Z,52.65
2018-07-08T01:45:52.025Z,52.73
2018-07-08T01:46:54.284Z,52.57
2018-07-08T01:47:52.068Z,52.54
2018-07-08T01:48:52.023Z,52.53
2018-07-08T01:49:52.166Z,52.62
2018-07-08T01:50:52.188Z,52.6
2018-07-08T01:51:52.025Z,52.55
2018-07-08T01:52:52.128Z,52.6
2018-07-08T01:53:52.137Z,52.54
2018-07-08T01:54:52.026Z,52.63
2018-07-08T01:55:52.113Z,52.58
2018-07-08T01:56:52.188Z,52.56
2018-07-08T01:57:52.124Z,52.57
2018-07-08T01:58:52.114Z,52.57
2018-07-08T01:59:52.170Z,52.47
2018-07-08T02:00:52.040Z,52.51
2018-07-08T02:01:52.394Z,52.48
2018-07-08T02:02:52.101Z,52.55
2018-07-08T02:03:52.107Z,52.58
2018-07-08T02:04:52.171Z,52.58
2018-07-08T02:05:54.826Z,52.59
2018-07-08T02:06:52.188Z,52.49
2018-07-08T02:07:52.423Z,52.54
2018-07-08T02:08:52.191Z,52.61
2018-07-08T02:09:52.048Z,52.51
2018-07-08T02:10:54.345Z,52.59
2018-07-08T02:11:54.863Z,52.45
2018-07-08T02:12:52.058Z,52.57
2018-07-08T02:13:54.965Z,52.64
2018-07-08T02:14:52.053Z,52.52
2018-07-08T02:15:52.045Z,52.47
2018-07-08T02:16:52.101Z,52.54
2018-07-08T02:17:52.126Z,52.55
2018-07-08T02:18:52.443Z,52.6
2018-07-08T02:19:52.132Z,52.66
2018-07-08T02:20:52.090Z,52.49
2018-07-08T02:22:01.928Z,52.6
2018-07-08T02:22:52.056Z,52.47
2018-07-08T02:23:52.124Z,52.48
2018-07-08T02:24:52.113Z,52.63
2018-07-08T02:25:52.094Z,52.42
2018-07-08T02:26:52.431Z,52.49
2018-07-08T02:27:52.167Z,52.47
2018-07-08T02:28:52.143Z,52.63
2018-07-08T02:29:52.066Z,52.55
2018-07-08T02:30:51.770Z,52.45
2018-07-08T02:31:52.065Z,52.43
2018-07-08T02:32:52.132Z,52.55
2018-07-08T02:33:52.074Z,52.56
2018-07-08T02:34:51.688Z,52.61
2018-07-08T02:35:52.187Z,52.47
2018-07-08T02:36:52.163Z,52.47
2018-07-08T02:37:52.205Z,52.46
2018-07-08T02:38:52.407Z,52.52
2018-07-08T02:39:51.805Z,52.52
2018-07-08T02:40:52.057Z,52.57
2018-07-08T02:41:52.071Z,52.58
2018-07-08T02:42:52.190Z,52.48
2018-07-08T02:43:52.120Z,52.44
2018-07-08T02:44:52.084Z,52.61
2018-07-08T02:45:52.116Z,52.59
2018-07-08T02:46:52.162Z,52.43
2018-07-08T02:47:52.427Z,52.4
2018-07-08T02:48:51.706Z,52.5
2018-07-08T02:49:52.115Z,52.52
2018-07-08T02:50:52.107Z,52.63
2018-07-08T02:51:53.772Z,52.52
2018-07-08T02:52:52.098Z,52.45
2018-07-08T02:53:52.234Z,52.52
2018-07-08T02:54:52.226Z,52.46
2018-07-08T02:55:52.455Z,52.45
2018-07-08T02:56:52.157Z,52.44
2018-07-08T02:57:52.081Z,52.48
2018-07-08T02:58:52.041Z,52.53
2018-07-08T02:59:52.248Z,52.65
2018-07-08T03:00:52.154Z,52.49
2018-07-08T03:01:52.084Z,52.52
2018-07-08T03:02:52.214Z,52.58
2018-07-08T03:03:51.769Z,52.5
2018-07-08T03:04:52.117Z,52.49
2018-07-08T03:05:52.225Z,52.48
2018-07-08T03:06:51.636Z,52.5
2018-07-08T03:07:51.755Z,52.46
2018-07-08T03:08:52.138Z,52.47
2018-07-08T03:09:51.755Z,52.55
2018-07-08T03:10:52.139Z,52.6
2018-07-08T03:11:52.082Z,52.42
2018-07-08T03:12:52.467Z,52.42
2018-07-08T03:13:52.126Z,52.57
2018-07-08T03:14:51.727Z,52.54
2018-07-08T03:15:51.752Z,52.51
2018-07-08T03:16:52.162Z,52.43
2018-07-08T03:17:51.728Z,52.44
2018-07-08T03:18:52.174Z,52.53
2018-07-08T03:19:52.465Z,52.51
2018-07-08T03:20:51.720Z,52.37
2018-07-08T03:21:52.099Z,52.5
2018-07-08T03:22:52.139Z,52.55
2018-07-08T03:23:52.165Z,52.58
2018-07-08T03:24:52.081Z,52.63
2018-07-08T03:25:52.147Z,52.56
2018-07-08T03:27:01.783Z,52.5
2018-07-08T03:27:52.250Z,52.56
2018-07-08T03:28:52.197Z,52.52
2018-07-08T03:29:52.449Z,52.35
2018-07-08T03:30:52.093Z,52.55
2018-07-08T03:31:51.792Z,52.51
2018-07-08T03:32:52.190Z,52.46
2018-07-08T03:33:52.233Z,52.51
2018-07-08T03:34:52.114Z,52.49
2018-07-08T03:35:51.752Z,52.4
2018-07-08T03:36:52.133Z,52.46
2018-07-08T03:37:52.469Z,52.49
2018-07-08T03:38:52.485Z,52.49
2018-07-08T03:39:52.169Z,52.43
2018-07-08T03:40:52.195Z,52.46
2018-07-08T03:41:52.132Z,52.46
2018-07-08T03:42:52.195Z,52.41
2018-07-08T03:43:54.711Z,52.46
2018-07-08T03:44:52.168Z,52.38
2018-07-08T03:45:52.190Z,52.37
2018-07-08T03:46:52.182Z,52.56
2018-07-08T03:47:52.132Z,52.41
2018-07-08T03:48:52.166Z,52.54
2018-07-08T03:49:52.156Z,52.38
2018-07-08T03:50:52.185Z,52.37
2018-07-08T03:51:52.079Z,52.46
2018-07-08T03:52:52.184Z,52.45
2018-07-08T03:53:51.772Z,52.38
2018-07-08T03:54:52.185Z,52.49
2018-07-08T03:55:51.758Z,52.4
2018-07-08T03:56:51.701Z,52.46
2018-07-08T03:57:51.767Z,52.46
2018-07-08T03:58:52.122Z,52.44
2018-07-08T03:59:51.806Z,52.54
2018-07-08T04:00:51.794Z,52.49
2018-07-08T04:01:54.687Z,52.39
2018-07-08T04:02:51.762Z,52.55
2018-07-08T04:03:51.821Z,52.38
2018-07-08T04:04:52.087Z,52.42
2018-07-08T04:05:52.231Z,52.35
2018-07-08T04:06:52.223Z,52.43
2018-07-08T04:07:52.108Z,52.48
2018-07-08T04:08:52.184Z,52.49
2018-07-08T04:09:52.296Z,52.45
2018-07-08T04:10:51.811Z,52.34
2018-07-08T04:11:51.594Z,52.4
2018-07-08T04:12:51.770Z,52.35
2018-07-08T04:13:52.218Z,52.4
2018-07-08T04:14:52.493Z,52.46
2018-07-08T04:15:52.208Z,52.44
2018-07-08T04:16:52.511Z,52.33
2018-07-08T04:17:52.211Z,52.47
2018-07-08T04:18:51.896Z,52.38
2018-07-08T04:19:52.230Z,52.38
2018-07-08T04:20:51.777Z,52.45
2018-07-08T04:21:52.886Z,52.42
2018-07-08T04:22:52.111Z,52.34
2018-07-08T04:23:51.840Z,52.35
2018-07-08T04:24:52.248Z,52.36
2018-07-08T04:25:51.805Z,52.31
2018-07-08T04:26:52.229Z,52.35
2018-07-08T04:27:51.811Z,52.5
2018-07-08T04:28:54.614Z,52.36
2018-07-08T04:29:51.676Z,52.34
2018-07-08T04:30:51.787Z,52.39
2018-07-08T04:31:52.516Z,52.4
2018-07-08T04:32:52.168Z,52.44
2018-07-08T04:33:52.215Z,52.41
2018-07-08T04:34:52.172Z,52.41
2018-07-08T04:35:52.307Z,52.34
2018-07-08T04:36:52.171Z,52.4
2018-07-08T04:37:51.770Z,52.41
2018-07-08T04:38:51.709Z,52.47
2018-07-08T04:39:51.765Z,52.45
2018-07-08T04:40:52.536Z,52.4
2018-07-08T04:41:51.862Z,52.42
2018-07-08T04:42:52.515Z,52.45
2018-07-08T04:43:52.187Z,52.5
2018-07-08T04:44:51.744Z,52.41
2018-07-08T04:45:51.762Z,52.37
2018-07-08T04:46:52.525Z,52.5
2018-07-08T04:47:51.743Z,52.38
2018-07-08T04:48:52.178Z,52.45
2018-07-08T04:49:51.810Z,52.38
2018-07-08T04:50:51.804Z,52.34
2018-07-08T04:51:51.797Z,52.43
2018-07-08T04:52:51.817Z,52.56
2018-07-08T04:53:52.142Z,52.51
2018-07-08T04:54:51.723Z,52.46
2018-07-08T04:55:51.817Z,52.43
2018-07-08T04:56:52.206Z,52.47
2018-07-08T04:57:51.766Z,52.4
2018-07-08T04:58:51.723Z,52.51
2018-07-08T04:59:51.730Z,52.42
2018-07-08T05:00:51.871Z,52.29
2018-07-08T05:01:51.747Z,52.4
2018-07-08T05:02:52.157Z,52.41
2018-07-08T05:03:52.530Z,52.38
2018-07-08T05:04:54.640Z,52.5
2018-07-08T05:05:51.815Z,52.47
2018-07-08T05:06:52.186Z,52.25
2018-07-08T05:07:51.723Z,52.34
2018-07-08T05:08:52.277Z,52.36
2018-07-08T05:09:51.688Z,52.44
2018-07-08T05:10:52.543Z,52.45
2018-07-08T05:11:51.842Z,52.36
2018-07-08T05:12:51.763Z,52.45
2018-07-08T05:13:52.178Z,52.35
2018-07-08T05:14:51.784Z,52.47
2018-07-08T05:15:52.175Z,52.31
2018-07-08T05:16:51.736Z,52.39
2018-07-08T05:17:52.228Z,52.47
2018-07-08T05:18:51.785Z,52.52
2018-07-08T05:19:51.779Z,52.37
2018-07-08T05:20:52.932Z,52.39
2018-07-08T05:21:51.839Z,52.37
2018-07-08T05:22:52.316Z,52.44
2018-07-08T05:23:52.243Z,52.37
2018-07-08T05:24:51.705Z,52.34
2018-07-08T05:25:51.708Z,52.26
2018-07-08T05:26:51.771Z,52.44
2018-07-08T05:27:54.349Z,52.51
2018-07-08T05:28:52.333Z,52.41
2018-07-08T05:29:51.860Z,52.41
2018-07-08T05:30:52.284Z,52.38
2018-07-08T05:31:52.177Z,52.43
2018-07-08T05:32:51.838Z,52.46
2018-07-08T05:33:52.238Z,52.34
2018-07-08T05:34:51.849Z,52.36
2018-07-08T05:35:52.227Z,52.38
2018-07-08T05:37:01.798Z,52.51
2018-07-08T05:37:51.779Z,52.48
2018-07-08T05:38:51.842Z,52.28
2018-07-08T05:39:52.181Z,52.32
2018-07-08T05:40:51.895Z,52.45
2018-07-08T05:41:51.860Z,52.4
2018-07-08T05:42:51.937Z,52.41
2018-07-08T05:43:51.809Z,52.47
2018-07-08T05:44:51.733Z,52.38
2018-07-08T05:45:51.600Z,52.42
2018-07-08T05:46:51.821Z,52.41
2018-07-08T05:47:51.779Z,52.4
2018-07-08T05:48:51.731Z,52.4
2018-07-08T05:49:51.785Z,52.45
2018-07-08T05:50:51.804Z,52.37
2018-07-08T05:51:51.728Z,52.44
2018-07-08T05:52:51.806Z,52.47
2018-07-08T05:53:51.907Z,52.49
2018-07-08T05:54:51.713Z,52.43
2018-07-08T05:55:51.716Z,52.46
2018-07-08T05:56:51.818Z,52.33
2018-07-08T05:57:51.863Z,52.29
2018-07-08T05:58:51.783Z,52.49
2018-07-08T05:59:51.727Z,52.3
2018-07-08T06:00:52.575Z,52.39
2018-07-08T06:01:51.773Z,52.41
2018-07-08T06:02:51.809Z,52.35
2018-07-08T06:03:51.708Z,52.34
2018-07-08T06:04:51.748Z,52.35
2018-07-08T06:05:51.722Z,52.27
2018-07-08T06:06:51.770Z,52.35
2018-07-08T06:07:51.880Z,52.33
2018-07-08T06:08:54.871Z,52.29
2018-07-08T06:09:51.775Z,52.39
2018-07-08T06:10:51.784Z,52.35
2018-07-08T06:11:52.675Z,52.33
2018-07-08T06:12:51.689Z,52.42
2018-07-08T06:13:51.790Z,52.39
2018-07-08T06:14:51.821Z,52.48
2018-07-08T06:15:51.921Z,52.37
2018-07-08T06:16:51.921Z,52.44
2018-07-08T06:17:52.224Z,52.31
2018-07-08T06:18:51.737Z,52.52
2018-07-08T06:19:51.802Z,52.43
2018-07-08T06:20:51.862Z,52.42
2018-07-08T06:21:51.892Z,52.48
2018-07-08T06:22:52.591Z,52.4
2018-07-08T06:23:51.840Z,52.28
2018-07-08T06:24:51.816Z,52.38
2018-07-08T06:25:52.245Z,52.42
2018-07-08T06:26:51.842Z,52.32
2018-07-08T06:27:51.915Z,52.34
2018-07-08T06:28:51.910Z,52.44
2018-07-08T06:29:51.829Z,52.39
2018-07-08T06:30:51.738Z,52.34
2018-07-08T06:31:52.211Z,52.4
2018-07-08T06:32:51.738Z,52.37
2018-07-08T06:33:51.725Z,52.43
2018-07-08T06:34:51.703Z,52.39
2018-07-08T06:35:51.823Z,52.36
2018-07-08T06:36:51.940Z,52.32
2018-07-08T06:37:52.228Z,52.3
2018-07-08T06:38:52.322Z,52.3
2018-07-08T06:39:51.690Z,52.28
2018-07-08T06:40:51.829Z,52.35
2018-07-08T06:41:51.793Z,52.32
2018-07-08T06:42:51.835Z,52.33
2018-07-08T06:43:51.719Z,52.29
2018-07-08T06:44:51.788Z,52.35
2018-07-08T06:45:51.704Z,52.33
2018-07-08T06:46:51.862Z,52.35
2018-07-08T06:47:51.901Z,52.28
2018-07-08T06:48:51.750Z,52.38
2018-07-08T06:49:53.773Z,52.3
2018-07-08T06:50:51.720Z,52.36
2018-07-08T06:51:52.636Z,52.26
2018-07-08T06:52:54.826Z,52.4
2018-07-08T06:53:51.852Z,52.33
2018-07-08T06:54:51.935Z,52.33
2018-07-08T06:55:51.786Z,52.29
2018-07-08T06:56:51.922Z,52.27
2018-07-08T06:57:51.821Z,52.38
2018-07-08T06:58:51.877Z,52.35
2018-07-08T06:59:51.852Z,52.28
2018-07-08T07:00:51.747Z,52.26
2018-07-08T07:01:51.793Z,52.41
2018-07-08T07:02:51.841Z,52.37
2018-07-08T07:03:51.854Z,52.38
2018-07-08T07:04:51.737Z,52.3
2018-07-08T07:05:51.775Z,52.43
2018-07-08T07:06:51.696Z,52.41
2018-07-08T07:07:51.777Z,52.22
2018-07-08T07:08:51.901Z,52.36
2018-07-08T07:09:51.899Z,52.36
2018-07-08T07:10:51.670Z,52.41
2018-07-08T07:11:51.871Z,52.42
2018-07-08T07:12:51.875Z,52.3
2018-07-08T07:13:51.766Z,52.35
2018-07-08T07:14:51.820Z,52.23
2018-07-08T07:15:51.704Z,52.25
2018-07-08T07:16:51.836Z,52.36
2018-07-08T07:17:51.796Z,52.32
2018-07-08T07:18:51.957Z,52.34
2018-07-08T07:19:51.749Z,52.21
2018-07-08T07:20:51.861Z,52.36
2018-07-08T07:21:51.830Z,52.29
2018-07-08T07:22:51.905Z,52.28
2018-07-08T07:23:51.955Z,52.28
2018-07-08T07:24:51.694Z,52.32
2018-07-08T07:25:51.747Z,52.22
2018-07-08T07:26:51.756Z,52.27
2018-07-08T07:27:51.779Z,52.23
2018-07-08T07:28:51.809Z,52.33
2018-07-08T07:29:51.744Z,52.3
2018-07-08T07:30:51.812Z,52.31
2018-07-08T07:31:51.768Z,52.24
2018-07-08T07:32:51.787Z,52.23
2018-07-08T07:33:51.646Z,52.31
2018-07-08T07:34:51.703Z,52.29
2018-07-08T07:35:51.895Z,52.2
2018-07-08T07:36:51.850Z,52.22
2018-07-08T07:37:51.874Z,52.27
2018-07-08T07:38:51.898Z,52.25
2018-07-08T07:39:51.708Z,52.11
2018-07-08T07:40:51.765Z,52.19
2018-07-08T07:41:52.681Z,52.16
2018-07-08T07:42:51.865Z,52.29
2018-07-08T07:43:51.877Z,52.23
2018-07-08T07:44:51.913Z,52.19
2018-07-08T07:45:51.773Z,52.21
2018-07-08T07:46:51.837Z,52.27
2018-07-08T07:47:51.801Z,52.07
2018-07-08T07:48:51.762Z,52.25
2018-07-08T07:49:51.858Z,52.22
2018-07-08T07:50:51.677Z,52.22
2018-07-08T07:51:51.734Z,52.23
2018-07-08T07:52:51.926Z,52.33
2018-07-08T07:53:51.989Z,52.16
2018-07-08T07:54:51.732Z,52.24
2018-07-08T07:55:51.736Z,52.16
2018-07-08T07:56:51.857Z,52.11
2018-07-08T07:57:51.871Z,52.2
2018-07-08T07:58:51.973Z,52.17
2018-07-08T07:59:51.827Z,52.21
2018-07-08T08:00:51.717Z,52.26
2018-07-08T08:01:51.920Z,52.27
2018-07-08T08:02:52.446Z,52.26
2018-07-08T08:03:51.719Z,52.21
2018-07-08T08:04:51.828Z,52.16
2018-07-08T08:05:51.944Z,52.06
2018-07-08T08:06:51.750Z,52.27
2018-07-08T08:07:51.964Z,52.13
2018-07-08T08:08:51.746Z,52.21
2018-07-08T08:09:51.766Z,52.22
2018-07-08T08:10:51.758Z,52.16
2018-07-08T08:11:51.811Z,52.17
2018-07-08T08:12:51.902Z,52.01
2018-07-08T08:13:51.949Z,52.19
2018-07-08T08:14:51.847Z,52.25
2018-07-08T08:15:51.786Z,52.12
2018-07-08T08:16:51.944Z,52.15
2018-07-08T08:17:51.878Z,52.24
2018-07-08T08:18:51.844Z,52.29
2018-07-08T08:19:51.928Z,52.34
2018-07-08T08:20:51.759Z,52.2
2018-07-08T08:21:51.769Z,51.98
2018-07-08T08:22:51.791Z,52.3
2018-07-08T08:23:51.844Z,52.15
2018-07-08T08:24:51.851Z,52.25
2018-07-08T08:25:51.888Z,52.28
2018-07-08T08:26:52.043Z,52.08
2018-07-08T08:27:51.683Z,52.25
2018-07-08T08:28:51.986Z,52.15
2018-07-08T08:29:51.649Z,52.09
2018-07-08T08:30:51.611Z,52.01
2018-07-08T08:31:51.765Z,52.07
2018-07-08T08:32:51.829Z,52.06
2018-07-08T08:33:51.840Z,52.19
2018-07-08T08:34:51.660Z,52.05
2018-07-08T08:35:51.655Z,52.05
2018-07-08T08:36:51.952Z,51.99
2018-07-08T08:37:52.435Z,52.04
2018-07-08T08:38:51.943Z,51.72
2018-07-08T08:39:51.822Z,51.87
2018-07-08T08:40:51.798Z,51.83
2018-07-08T08:41:51.831Z,51.86
2018-07-08T08:42:51.832Z,51.77
2018-07-08T08:43:51.770Z,51.78
2018-07-08T08:44:51.649Z,51.77
2018-07-08T08:45:51.744Z,51.85
2018-07-08T08:46:52.546Z,51.83
2018-07-08T08:47:51.742Z,51.88
2018-07-08T08:48:51.885Z,51.95
2018-07-08T08:49:51.997Z,51.82
2018-07-08T08:50:51.964Z,51.96
2018-07-08T08:51:51.779Z,52.03
2018-07-08T08:52:51.795Z,51.82
2018-07-08T08:53:51.824Z,51.81
2018-07-08T08:54:51.729Z,51.84
2018-07-08T08:55:51.887Z,51.88
2018-07-08T08:56:51.802Z,51.73
2018-07-08T08:57:51.707Z,51.87
2018-07-08T08:58:51.823Z,51.8
2018-07-08T08:59:51.926Z,51.78
2018-07-08T09:00:51.716Z,51.71
2018-07-08T09:01:51.995Z,51.88
2018-07-08T09:02:52.737Z,51.81
2018-07-08T09:03:51.691Z,51.83
2018-07-08T09:04:51.780Z,51.79
2018-07-08T09:05:51.726Z,51.75
2018-07-08T09:06:51.857Z,51.75
2018-07-08T09:07:51.825Z,51.79
2018-07-08T09:08:51.827Z,51.8
2018-07-08T09:09:51.799Z,51.78
2018-07-08T09:10:52.049Z,51.59
2018-07-08T09:11:51.759Z,51.74
2018-07-08T09:12:51.718Z,51.75
2018-07-08T09:13:51.823Z,51.72
2018-07-08T09:14:51.763Z,51.79
2018-07-08T09:15:51.820Z,51.65
2018-07-08T09:16:51.986Z,51.67
2018-07-08T09:17:51.854Z,51.69
2018-07-08T09:18:51.834Z,51.82
2018-07-08T09:19:51.874Z,51.89
2018-07-08T09:20:51.827Z,51.89
2018-07-08T09:21:51.714Z,51.83
2018-07-08T09:22:51.822Z,51.96
2018-07-08T09:23:51.979Z,51.84
2018-07-08T09:24:51.779Z,52.06
2018-07-08T09:25:51.711Z,51.88
2018-07-08T09:26:51.834Z,51.97
2018-07-08T09:27:51.740Z,51.91
2018-07-08T09:28:51.755Z,51.85
2018-07-08T09:29:51.822Z,51.84
2018-07-08T09:30:51.661Z,51.96
2018-07-08T09:31:51.719Z,51.88
2018-07-08T09:32:51.646Z,51.84
2018-07-08T09:33:51.848Z,51.95
2018-07-08T09:34:51.741Z,51.88
2018-07-08T09:35:51.837Z,51.84
2018-07-08T09:36:51.725Z,51.88
2018-07-08T09:37:52.076Z,51.83
2018-07-08T09:38:52.158Z,51.86
2018-07-08T09:39:51.905Z,51.84
2018-07-08T09:40:51.774Z,51.88
2018-07-08T09:41:51.627Z,51.79
2018-07-08T09:42:51.681Z,51.87
2018-07-08T09:43:51.958Z,51.74
2018-07-08T09:44:52.477Z,51.76
2018-07-08T09:45:52.003Z,51.7
2018-07-08T09:46:51.748Z,51.77
2018-07-08T09:47:51.673Z,51.74
2018-07-08T09:48:51.759Z,51.77
2018-07-08T09:49:51.753Z,51.83
2018-07-08T09:50:51.582Z,51.57
2018-07-08T09:51:51.912Z,51.86
2018-07-08T09:52:51.921Z,51.7
2018-07-08T09:53:51.643Z,51.87
2018-07-08T09:54:51.734Z,51.91
2018-07-08T09:55:51.905Z,51.83
2018-07-08T09:56:51.850Z,51.85
2018-07-08T09:57:51.681Z,51.87
2018-07-08T09:58:52.482Z,51.82
2018-07-08T09:59:51.776Z,51.75
2018-07-08T10:00:51.911Z,51.98
2018-07-08T10:01:51.976Z,52.12
2018-07-08T10:02:51.851Z,52.02
2018-07-08T10:03:51.689Z,52.08
2018-07-08T10:04:51.925Z,52.07
2018-07-08T10:05:51.822Z,51.98
2018-07-08T10:06:51.836Z,51.93
2018-07-08T10:07:51.788Z,52.04
2018-07-08T10:08:51.661Z,52.05
2018-07-08T10:09:51.806Z,52.21
2018-07-08T10:10:52.157Z,52.23
2018-07-08T10:11:52.017Z,52.16
2018-07-08T10:12:51.844Z,52.08
2018-07-08T10:13:52.124Z,52.19
2018-07-08T10:14:52.074Z,52.08
2018-07-08T10:15:51.727Z,52.28
2018-07-08T10:16:52.000Z,52.16
2018-07-08T10:17:52.036Z,52.25
2018-07-08T10:18:51.957Z,52.26
2018-07-08T10:19:52.107Z,52.19
2018-07-08T10:20:52.036Z,52.41
2018-07-08T10:21:51.689Z,52.23
2018-07-08T10:22:51.823Z,52.41
2018-07-08T10:23:51.874Z,52.3
2018-07-08T10:24:51.952Z,52.49
2018-07-08T10:25:51.860Z,52.41
2018-07-08T10:26:51.855Z,52.25
2018-07-08T10:27:51.717Z,52.21
2018-07-08T10:28:51.822Z,52.22
2018-07-08T10:29:51.858Z,52.28
2018-07-08T10:30:51.733Z,52.39
2018-07-08T10:31:51.827Z,52.34
2018-07-08T10:32:51.790Z,52.35
2018-07-08T10:33:51.790Z,52.3
2018-07-08T10:34:51.800Z,52.2
2018-07-08T10:35:51.593Z,52.25
2018-07-08T10:36:51.856Z,52.27
2018-07-08T10:37:52.082Z,52.21
2018-07-08T10:38:51.875Z,52.1
2018-07-08T10:39:51.685Z,52.15
2018-07-08T10:40:52.589Z,52.26
2018-07-08T10:41:51.956Z,52.23
2018-07-08T10:42:51.827Z,52.3
2018-07-08T10:43:51.789Z,52.21
2018-07-08T10:44:51.551Z,52.33
2018-07-08T10:45:51.751Z,52.13
2018-07-08T10:46:51.951Z,52.03
2018-07-08T10:47:51.845Z,52.23
2018-07-08T10:48:51.705Z,52.12
2018-07-08T10:49:51.723Z,51.92
2018-07-08T10:50:51.681Z,51.97
2018-07-08T10:51:51.673Z,52.1
2018-07-08T10:52:51.869Z,52.32
2018-07-08T10:53:51.620Z,52.34
2018-07-08T10:54:51.778Z,52.25
2018-07-08T10:55:51.840Z,52.38
2018-07-08T10:56:51.840Z,52.34
2018-07-08T10:57:51.719Z,52.47
2018-07-08T10:58:51.738Z,52.27
2018-07-08T10:59:51.686Z,52.26
2018-07-08T11:00:51.762Z,52.25
2018-07-08T11:01:52.038Z,52.25
2018-07-08T11:02:51.678Z,52.26
2018-07-08T11:03:51.734Z,52.18
2018-07-08T11:04:51.737Z,52.25
2018-07-08T11:05:51.755Z,52.21
2018-07-08T11:06:51.802Z,52.2
2018-07-08T11:07:51.807Z,52.24
2018-07-08T11:08:51.821Z,52.21
2018-07-08T11:09:51.716Z,52.24
2018-07-08T11:10:51.901Z,52.22
2018-07-08T11:12:22.890Z,52.26
2018-07-08T11:12:51.768Z,52.26
2018-07-08T11:13:51.768Z,52.29
2018-07-08T11:14:51.706Z,52.3
2018-07-08T11:15:51.746Z,52.29
2018-07-08T11:16:51.813Z,52.23
2018-07-08T11:17:51.604Z,52.29
2018-07-08T11:18:51.686Z,52.22
2018-07-08T11:19:51.830Z,52.21
2018-07-08T11:20:51.682Z,52.22
2018-07-08T11:21:51.785Z,52.34
2018-07-08T11:22:51.891Z,52.29
2018-07-08T11:23:51.728Z,52.28
2018-07-08T11:24:51.804Z,52.24
2018-07-08T11:25:51.711Z,52.25
2018-07-08T11:26:51.719Z,52.18
2018-07-08T11:27:51.929Z,52.15
2018-07-08T11:28:51.747Z,52.18
2018-07-08T11:29:51.803Z,52.25
2018-07-08T11:30:51.805Z,52.32
2018-07-08T11:31:51.799Z,52.29
2018-07-08T11:32:51.835Z,52.26
2018-07-08T11:33:51.816Z,52.28
2018-07-08T11:34:51.790Z,52.26
2018-07-08T11:35:51.689Z,52.27
2018-07-08T11:36:51.977Z,52.3
2018-07-08T11:37:51.756Z,52.32
2018-07-08T11:38:51.996Z,52.32
2018-07-08T11:39:51.641Z,52.18
2018-07-08T11:40:51.857Z,52.12
2018-07-08T11:41:51.896Z,52.16
2018-07-08T11:42:51.937Z,52.32
2018-07-08T11:43:51.765Z,52.23
2018-07-08T11:44:51.696Z,52.15
2018-07-08T11:45:51.748Z,52.19
2018-07-08T11:46:51.962Z,52.12
2018-07-08T11:48:03.247Z,52.18
2018-07-08T11:48:51.775Z,52.16
2018-07-08T11:49:51.942Z,52.31
2018-07-08T11:50:51.799Z,52.19
2018-07-08T11:51:51.767Z,52.17
2018-07-08T11:52:51.758Z,52.08
2018-07-08T11:53:51.766Z,52.13
2018-07-08T11:54:51.706Z,52.19
2018-07-08T11:55:51.821Z,52.18
2018-07-08T11:56:51.657Z,52.15
2018-07-08T11:57:51.769Z,52.16
2018-07-08T11:58:51.923Z,52.17
2018-07-08T11:59:51.692Z,52.22
2018-07-08T12:00:51.638Z,52.27
2018-07-08T12:01:52.030Z,52.17
2018-07-08T12:02:51.669Z,52.24
2018-07-08T12:03:51.932Z,52.14
2018-07-08T12:04:51.675Z,52.18
2018-07-08T12:05:51.553Z,52.18
2018-07-08T12:06:51.726Z,52.14
2018-07-08T12:07:51.765Z,52.21
2018-07-08T12:08:51.791Z,52.26
2018-07-08T12:09:51.767Z,52.2
2018-07-08T12:10:51.776Z,52.21
2018-07-08T12:11:51.751Z,52.29
2018-07-08T12:12:51.636Z,52.11
2018-07-08T12:13:51.969Z,52.17
2018-07-08T12:14:51.833Z,52.21
2018-07-08T12:15:51.809Z,52.16
2018-07-08T12:16:51.758Z,52.19
2018-07-08T12:17:51.636Z,52.18
2018-07-08T12:18:51.797Z,52.15
2018-07-08T12:19:52.595Z,52.19
2018-07-08T12:20:51.822Z,52.21
2018-07-08T12:21:51.798Z,52.28
2018-07-08T12:22:51.775Z,52.09
2018-07-08T12:23:51.658Z,52.21
2018-07-08T12:24:51.686Z,52.19
2018-07-08T12:25:51.762Z,52.19
2018-07-08T12:26:51.756Z,52.24
2018-07-08T12:27:51.811Z,52.22
2018-07-08T12:28:51.880Z,52.08
2018-07-08T12:29:51.857Z,52.05
2018-07-08T12:30:51.777Z,52.08
2018-07-08T12:31:51.590Z,52.34
2018-07-08T12:32:51.692Z,52.19
2018-07-08T12:33:51.603Z,52.07
2018-07-08T12:34:51.758Z,52.19
2018-07-08T12:35:51.564Z,52.12
2018-07-08T12:36:51.851Z,52.04
2018-07-08T12:37:51.968Z,52.18
2018-07-08T12:38:51.711Z,52.08
2018-07-08T12:39:51.651Z,52.23
2018-07-08T12:40:51.712Z,52.13
2018-07-08T12:42:23.813Z,52.18
2018-07-08T12:42:51.798Z,52.18
2018-07-08T12:43:51.936Z,52.2
2018-07-08T12:44:51.945Z,52.08
2018-07-08T12:45:51.847Z,52.24
2018-07-08T12:46:51.708Z,52.19
2018-07-08T12:47:51.716Z,52.17
2018-07-08T12:48:51.710Z,52.24
2018-07-08T12:49:51.782Z,52.4
2018-07-08T12:50:51.645Z,52.17
2018-07-08T12:51:51.845Z,52.38
2018-07-08T12:52:52.009Z,52.32
2018-07-08T12:53:51.784Z,52.27
2018-07-08T12:54:51.776Z,52.43